createdAt,value
2017-07-22T00:01:24.827Z,12.03
2017-07-22T00:03:53.893Z,11.40
2017-07-22T00:06:21.592Z,13.00
2017-07-22T00:08:49.257Z,11.77
2017-07-22T00:11:17.925Z,14.10
2017-07-22T00:13:45.701Z,12.23
2017-07-22T00:16:13.396Z,11.27
2017-07-22T00:18:44.372Z,13.10
2017-07-22T00:21:12.717Z,12.20
2017-07-22T00:23:40.774Z,12.07
2017-07-22T00:26:10.251Z,12.10
2017-07-22T00:28:39.509Z,11.30
2017-07-22T00:31:07.220Z,12.00
2017-07-22T00:33:34.840Z,11.50
2017-07-22T00:36:03.988Z,11.03
2017-07-22T00:38:32.640Z,11.27
2017-07-22T00:41:00.979Z,11.00
2017-07-22T00:43:30.180Z,11.20
2017-07-22T00:45:57.946Z,13.00
2017-07-22T00:48:26.232Z,11.13
2017-07-22T00:50:53.957Z,10.90
2017-07-22T00:53:21.717Z,11.00
2017-07-22T00:55:49.441Z,11.03
2017-07-22T00:58:17.180Z,11.30
2017-07-22T01:00:44.905Z,11.90
2017-07-22T01:03:12.592Z,11.33
2017-07-22T01:05:42.431Z,11.93
2017-07-22T01:08:10.199Z,12.50
2017-07-22T01:10:37.957Z,11.37
2017-07-22T01:13:05.647Z,12.27
2017-07-22T01:15:33.379Z,12.83
2017-07-22T01:18:01.210Z,13.83
2017-07-22T01:20:29.886Z,13.50
2017-07-22T01:22:57.582Z,15.53
2017-07-22T01:25:25.207Z,16.03
2017-07-22T01:27:52.942Z,15.30
2017-07-22T01:30:21.070Z,15.60
2017-07-22T01:32:48.914Z,15.60
2017-07-22T01:35:18.139Z,14.70
2017-07-22T01:37:45.881Z,15.20
2017-07-22T01:40:13.542Z,15.30
2017-07-22T01:42:41.915Z,13.60
2017-07-22T01:45:10.203Z,14.40
2017-07-22T01:47:38.126Z,14.30
2017-07-22T01:50:05.855Z,13.80
2017-07-22T01:52:33.523Z,15.13
2017-07-22T01:55:05.502Z,14.37
2017-07-22T01:57:33.663Z,13.33
2017-07-22T02:00:01.909Z,14.10
2017-07-22T02:02:44.028Z,15.63
2017-07-22T02:05:13.883Z,13.50
2017-07-22T02:07:50.741Z,13.63
2017-07-22T02:10:28.804Z,14.30
2017-07-22T02:13:00.457Z,14.73
2017-07-22T02:15:37.360Z,14.23
2017-07-22T02:18:13.361Z,14.30
2017-07-22T02:23:27.272Z,16.03
2017-07-22T02:26:09.619Z,14.00
2017-07-22T02:28:41.646Z,14.70
2017-07-22T02:31:15.988Z,14.90
2017-07-22T02:39:06.885Z,14.33
2017-07-22T02:41:37.297Z,14.33
2017-07-22T02:44:07.092Z,14.57
2017-07-22T02:46:35.749Z,14.57
2017-07-22T02:49:04.177Z,14.63
2017-07-22T02:51:31.989Z,14.57
2017-07-22T02:53:59.595Z,14.23
2017-07-22T02:56:29.197Z,14.43
2017-07-22T02:58:57.832Z,13.20
2017-07-22T03:01:25.584Z,12.80
2017-07-22T03:03:53.265Z,14.60
2017-07-22T03:06:20.935Z,13.93
2017-07-22T03:08:48.654Z,14.03
2017-07-22T03:11:17.159Z,14.10
2017-07-22T03:13:46.407Z,13.43
2017-07-22T03:16:14.155Z,13.20
2017-07-22T03:18:41.816Z,13.30
2017-07-22T03:21:09.493Z,12.63
2017-07-22T03:23:37.127Z,13.97
2017-07-22T03:26:05.723Z,12.03
2017-07-22T03:28:33.400Z,13.60
2017-07-22T03:31:01.474Z,13.87
2017-07-22T03:33:29.956Z,14.40
2017-07-22T03:35:58.611Z,13.70
2017-07-22T03:38:27.792Z,14.50
2017-07-22T03:41:09.795Z,13.87
2017-07-22T03:43:38.966Z,14.90
2017-07-22T03:46:17.116Z,14.70
2017-07-22T03:48:44.793Z,12.70
2017-07-22T03:51:13.402Z,15.07
2017-07-22T03:53:41.161Z,13.60
2017-07-22T03:56:12.020Z,14.43
2017-07-22T03:58:47.871Z,13.13
2017-07-22T04:01:20.875Z,13.87
2017-07-22T04:04:01.938Z,13.63
2017-07-22T04:06:30.178Z,13.63
2017-07-22T04:08:58.605Z,14.13
2017-07-22T04:11:27.676Z,14.17
2017-07-22T04:13:55.410Z,14.10
2017-07-22T04:16:23.058Z,12.60
2017-07-22T04:18:50.760Z,14.70
2017-07-22T04:21:18.456Z,14.23
2017-07-22T04:23:46.136Z,14.60
2017-07-22T04:26:13.841Z,14.40
2017-07-22T04:28:41.667Z,12.93
2017-07-22T04:31:09.341Z,13.50
2017-07-22T04:33:38.429Z,13.87
2017-07-22T04:36:06.070Z,12.57
2017-07-22T04:38:33.752Z,14.47
2017-07-22T04:41:01.421Z,13.43
2017-07-22T04:43:29.125Z,14.33
2017-07-22T04:45:56.802Z,13.33
2017-07-22T04:48:24.703Z,14.93
2017-07-22T04:50:52.401Z,13.50
2017-07-22T04:53:20.103Z,12.53
2017-07-22T04:55:48.068Z,14.10
2017-07-22T04:58:16.832Z,13.13
2017-07-22T05:00:46.840Z,13.00
2017-07-22T05:03:15.311Z,13.83
2017-07-22T05:05:43.047Z,13.40
2017-07-22T05:08:11.308Z,13.80
2017-07-22T05:10:38.977Z,13.70
2017-07-22T05:13:09.450Z,16.10
2017-07-22T05:15:37.191Z,16.20
2017-07-22T05:18:04.853Z,16.77
2017-07-22T05:20:33.153Z,15.70
2017-07-22T05:23:01.189Z,15.30
2017-07-22T05:25:28.921Z,15.57
2017-07-22T05:27:56.597Z,14.77
2017-07-22T05:30:24.286Z,14.10
2017-07-22T05:32:52.021Z,16.77
2017-07-22T05:35:19.702Z,16.77
2017-07-22T05:37:47.412Z,14.80
2017-07-22T05:40:15.140Z,16.47
2017-07-22T05:42:42.886Z,15.40
2017-07-22T05:45:10.634Z,15.70
2017-07-22T05:47:38.930Z,16.07
2017-07-22T05:50:06.611Z,14.37
2017-07-22T05:52:34.295Z,15.10
2017-07-22T05:55:02.214Z,13.73
2017-07-22T05:57:29.890Z,14.67
2017-07-22T05:59:57.601Z,13.20
2017-07-22T06:02:25.287Z,13.57
2017-07-22T06:04:53.223Z,14.70
2017-07-22T06:07:20.957Z,14.37
2017-07-22T06:09:48.689Z,14.13
2017-07-22T06:12:17.572Z,14.23
2017-07-22T06:14:45.342Z,13.87
2017-07-22T06:17:13.058Z,13.77
2017-07-22T06:19:40.786Z,12.73
2017-07-22T06:22:08.632Z,13.13
2017-07-22T06:24:37.104Z,14.50
2017-07-22T06:27:04.869Z,12.00
2017-07-22T06:29:32.629Z,12.27
2017-07-22T06:32:00.387Z,13.50
2017-07-22T06:34:28.044Z,12.87
2017-07-22T06:36:56.918Z,12.53
2017-07-22T06:39:24.662Z,12.70
2017-07-22T06:41:52.481Z,13.60
2017-07-22T06:44:20.208Z,12.57
2017-07-22T06:46:47.984Z,13.47
2017-07-22T06:49:15.674Z,13.57
2017-07-22T06:51:43.389Z,15.77
2017-07-22T06:54:11.165Z,14.27
2017-07-22T06:56:38.861Z,12.80
2017-07-22T06:59:06.571Z,14.40
2017-07-22T07:01:35.124Z,15.00
2017-07-22T07:04:02.875Z,12.97
2017-07-22T07:09:54.351Z,14.83
2017-07-22T07:12:22.102Z,14.57
2017-07-22T07:14:51.462Z,14.43
2017-07-22T07:17:20.132Z,13.50
2017-07-22T07:19:48.421Z,13.87
2017-07-22T07:22:16.599Z,15.07
2017-07-22T07:24:47.186Z,12.90
2017-07-22T07:30:44.912Z,14.40
2017-07-22T07:33:15.206Z,12.70
2017-07-22T07:35:45.984Z,11.93
2017-07-22T07:38:16.508Z,11.50
2017-07-22T07:44:14.729Z,12.50
2017-07-22T07:46:45.076Z,12.83
2017-07-22T07:52:37.012Z,12.47
2017-07-22T07:55:05.695Z,12.27
2017-07-22T07:57:36.474Z,12.73
2017-07-22T08:00:11.880Z,11.93
2017-07-22T08:02:41.129Z,12.00
2017-07-22T08:05:12.134Z,10.83
2017-07-22T08:07:41.183Z,12.27
2017-07-22T08:10:08.919Z,11.50
2017-07-22T08:12:36.914Z,11.23
2017-07-22T08:15:05.047Z,12.37
2017-07-22T08:17:32.975Z,11.67
2017-07-22T08:20:01.135Z,11.00
2017-07-22T08:22:28.988Z,11.63
2017-07-22T08:24:56.911Z,11.50
2017-07-22T08:27:24.927Z,11.77
2017-07-22T08:29:53.613Z,11.30
2017-07-22T08:32:21.617Z,10.90
2017-07-22T08:34:50.794Z,10.70
2017-07-22T08:37:18.683Z,10.87
2017-07-22T08:39:46.579Z,10.63
2017-07-22T08:42:14.601Z,11.50
2017-07-22T08:44:42.603Z,11.10
2017-07-22T08:47:10.455Z,10.50
2017-07-22T08:49:38.410Z,11.33
2017-07-22T08:52:06.493Z,10.10
2017-07-22T08:54:34.418Z,11.10
2017-07-22T08:57:02.495Z,10.80
2017-07-22T08:59:31.292Z,10.13
2017-07-22T09:02:00.084Z,11.20
2017-07-22T09:04:28.870Z,10.77
2017-07-22T09:06:56.995Z,9.70
2017-07-22T09:09:25.755Z,11.47
2017-07-22T09:11:54.484Z,10.87
2017-07-22T09:14:23.464Z,10.93
2017-07-22T09:16:52.940Z,10.70
2017-07-22T09:19:22.163Z,10.10
2017-07-22T09:21:50.354Z,9.90
2017-07-22T09:24:18.277Z,11.10
2017-07-22T09:26:47.865Z,10.77
2017-07-22T09:29:18.078Z,10.90
2017-07-22T09:31:52.772Z,10.73
2017-07-22T09:34:21.584Z,11.53
2017-07-22T09:36:50.260Z,10.57
2017-07-22T09:39:18.651Z,10.63
2017-07-22T09:41:47.729Z,10.70
2017-07-22T09:44:16.107Z,10.30
2017-07-22T09:46:44.332Z,10.30
2017-07-22T09:49:12.570Z,9.23
2017-07-22T09:51:40.827Z,9.00
2017-07-22T09:54:10.187Z,8.67
2017-07-22T09:56:39.154Z,10.33
2017-07-22T09:59:08.316Z,9.73
2017-07-22T10:01:36.187Z,10.20
2017-07-22T10:07:25.890Z,9.30
2017-07-22T10:09:53.823Z,8.80
2017-07-22T10:12:21.729Z,9.27
2017-07-22T10:14:51.354Z,9.20
2017-07-22T10:17:19.864Z,10.17
2017-07-22T10:19:47.910Z,9.60
2017-07-22T10:22:16.579Z,9.20
2017-07-22T10:24:45.656Z,9.40
2017-07-22T10:27:14.074Z,9.60
2017-07-22T10:29:42.864Z,8.80
2017-07-22T10:32:12.092Z,9.97
2017-07-22T10:34:41.529Z,9.10
2017-07-22T10:37:09.318Z,9.00
2017-07-22T10:39:37.579Z,9.57
2017-07-22T10:42:06.241Z,8.93
2017-07-22T10:44:41.303Z,9.30
2017-07-22T10:47:09.866Z,9.80
2017-07-22T10:49:37.801Z,9.50
2017-07-22T10:52:06.356Z,9.80
2017-07-22T10:54:35.245Z,11.77
2017-07-22T10:57:03.817Z,8.37
2017-07-22T10:59:32.017Z,8.13
2017-07-22T11:02:00.913Z,8.33
2017-07-22T11:04:28.872Z,7.90
2017-07-22T11:06:57.588Z,7.70
2017-07-22T11:09:25.583Z,8.17
2017-07-22T11:11:55.682Z,7.80
2017-07-22T11:14:35.712Z,9.43
2017-07-22T11:17:05.130Z,8.33
2017-07-22T11:19:33.194Z,10.30
2017-07-22T11:22:01.219Z,10.77
2017-07-22T11:24:30.090Z,9.10
2017-07-22T11:27:02.494Z,8.57
2017-07-22T11:29:34.341Z,8.27
2017-07-22T11:32:13.535Z,8.70
2017-07-22T11:34:44.024Z,8.80
2017-07-22T11:37:15.278Z,9.20
2017-07-22T11:39:44.506Z,9.50
2017-07-22T11:42:16.556Z,9.57
2017-07-22T11:44:48.494Z,10.00
2017-07-22T11:47:20.247Z,10.17
2017-07-22T11:49:56.080Z,9.90
2017-07-22T11:52:25.129Z,9.20
2017-07-22T11:55:08.320Z,8.83
2017-07-22T11:57:39.539Z,9.20
2017-07-22T12:00:09.647Z,8.90
2017-07-22T12:02:39.317Z,9.40
2017-07-22T12:05:09.741Z,10.10
2017-07-22T12:07:41.611Z,9.83
2017-07-22T12:10:10.551Z,9.03
2017-07-22T12:12:39.343Z,9.93
2017-07-22T12:15:11.089Z,9.60
2017-07-22T12:17:40.053Z,9.70
2017-07-22T12:20:09.537Z,9.50
2017-07-22T12:22:37.993Z,9.80
2017-07-22T12:25:06.498Z,9.00
2017-07-22T12:27:35.506Z,9.50
2017-07-22T12:30:07.989Z,9.23
2017-07-22T12:32:36.782Z,9.00
2017-07-22T12:35:09.567Z,8.90
2017-07-22T12:37:37.581Z,8.77
2017-07-22T12:40:05.546Z,9.80
2017-07-22T12:42:35.869Z,9.20
2017-07-22T12:45:05.891Z,10.17
2017-07-22T12:50:11.877Z,9.40
2017-07-22T12:52:47.508Z,9.60
2017-07-22T12:55:18.358Z,8.53
2017-07-22T12:57:47.238Z,9.33
2017-07-22T13:00:19.686Z,8.90
2017-07-22T13:05:40.760Z,8.97
2017-07-22T13:08:09.894Z,10.77
2017-07-22T13:10:40.500Z,9.50
2017-07-22T13:13:16.196Z,9.20
2017-07-22T13:15:46.204Z,9.50
2017-07-22T13:18:19.582Z,9.60
2017-07-22T13:20:53.497Z,9.17
2017-07-22T13:23:21.194Z,7.67
2017-07-22T13:25:58.031Z,8.80
2017-07-22T13:28:27.677Z,9.30
2017-07-22T13:30:58.133Z,9.20
2017-07-22T13:33:30.932Z,8.63
2017-07-22T13:36:05.290Z,10.20
2017-07-22T13:38:44.112Z,9.20
2017-07-22T13:41:16.366Z,11.70
2017-07-22T13:43:50.432Z,9.67
2017-07-22T13:46:19.583Z,9.30
2017-07-22T13:48:47.781Z,7.93
2017-07-22T13:51:20.595Z,8.13
2017-07-22T13:53:52.305Z,8.47
2017-07-22T13:56:24.103Z,7.73
2017-07-22T13:58:52.694Z,8.80
2017-07-22T14:01:28.563Z,8.13
2017-07-22T14:03:57.968Z,7.80
2017-07-22T14:06:29.448Z,9.00
2017-07-22T14:09:03.141Z,9.00
2017-07-22T14:11:35.687Z,9.00
2017-07-22T14:14:07.947Z,8.40
2017-07-22T14:16:35.576Z,8.63
2017-07-22T14:19:03.195Z,8.60
2017-07-22T14:21:30.786Z,9.07
2017-07-22T14:23:58.425Z,9.40
2017-07-22T14:26:26.037Z,8.90
2017-07-22T14:28:53.611Z,8.37
2017-07-22T14:31:21.214Z,8.43
2017-07-22T14:33:48.955Z,8.70
2017-07-22T14:36:16.594Z,8.50
2017-07-22T14:38:44.459Z,8.60
2017-07-22T14:41:12.070Z,8.97
2017-07-22T14:43:40.159Z,9.60
2017-07-22T14:46:07.815Z,8.50
2017-07-22T14:48:37.403Z,8.83
2017-07-22T14:51:05.127Z,11.60
2017-07-22T14:53:33.512Z,8.70
2017-07-22T14:56:01.836Z,8.90
2017-07-22T14:58:29.565Z,9.50
2017-07-22T15:00:57.287Z,8.63
2017-07-22T15:03:25.026Z,8.20
2017-07-22T15:05:52.718Z,8.57
2017-07-22T15:08:21.014Z,8.50
2017-07-22T15:10:48.668Z,9.90
2017-07-22T15:13:16.349Z,9.53
2017-07-22T15:15:44.529Z,9.47
2017-07-22T15:18:12.153Z,9.97
2017-07-22T15:20:39.699Z,8.80
2017-07-22T15:23:07.433Z,8.53
2017-07-22T15:25:35.012Z,8.70
2017-07-22T15:28:02.677Z,9.47
2017-07-22T15:30:30.445Z,9.13
2017-07-22T15:32:58.268Z,10.03
2017-07-22T15:35:25.896Z,9.67
2017-07-22T15:37:53.498Z,9.33
2017-07-22T15:40:22.820Z,10.20
2017-07-22T15:42:50.522Z,9.40
2017-07-22T15:45:18.164Z,8.77
2017-07-22T15:47:45.742Z,9.10
2017-07-22T15:50:13.877Z,9.17
2017-07-22T15:52:41.566Z,10.00
2017-07-22T15:55:09.274Z,9.47
2017-07-22T15:57:37.092Z,9.67
2017-07-22T16:00:07.892Z,11.50
2017-07-22T16:02:35.468Z,10.40
2017-07-22T16:05:03.169Z,10.50
2017-07-22T16:07:31.221Z,10.53
2017-07-22T16:09:59.051Z,11.43
2017-07-22T16:12:26.862Z,10.60
2017-07-22T16:14:54.589Z,9.33
2017-07-22T16:17:22.403Z,10.00
2017-07-22T16:19:50.230Z,10.40
2017-07-22T16:22:17.870Z,10.23
2017-07-22T16:24:45.523Z,10.57
2017-07-22T16:27:13.891Z,10.50
2017-07-22T16:29:41.519Z,9.50
2017-07-22T16:32:09.106Z,9.80
2017-07-22T16:34:36.703Z,10.20
2017-07-22T16:37:04.853Z,9.87
2017-07-22T16:39:32.504Z,10.43
2017-07-22T16:42:00.087Z,10.40
2017-07-22T16:44:27.687Z,9.53
2017-07-22T16:46:55.318Z,9.57
2017-07-22T16:49:22.910Z,9.43
2017-07-22T16:51:50.465Z,10.13
2017-07-22T16:54:18.111Z,11.20
2017-07-22T16:56:45.703Z,10.30
2017-07-22T16:59:14.026Z,10.67
2017-07-22T17:01:42.530Z,11.17
2017-07-22T17:04:10.147Z,10.50
2017-07-22T17:06:37.960Z,10.00
2017-07-22T17:09:05.609Z,9.27
2017-07-22T17:11:33.174Z,10.60
2017-07-22T17:14:00.775Z,10.33
2017-07-22T17:16:28.466Z,10.70
2017-07-22T17:18:56.481Z,10.60
2017-07-22T17:21:24.049Z,10.63
2017-07-22T17:23:52.487Z,10.27
2017-07-22T17:26:20.107Z,9.00
2017-07-22T17:28:47.684Z,9.70
2017-07-22T17:31:15.395Z,10.63
2017-07-22T17:33:43.253Z,9.60
2017-07-22T17:36:10.869Z,9.07
2017-07-22T17:38:38.541Z,12.47
2017-07-22T17:41:06.319Z,10.70
2017-07-22T17:43:33.894Z,10.43
2017-07-22T17:46:01.547Z,11.33
2017-07-22T17:48:29.147Z,11.03
2017-07-22T17:50:56.826Z,11.80
2017-07-22T17:53:24.564Z,12.67
2017-07-22T17:55:52.255Z,11.90
2017-07-22T17:58:20.009Z,10.83
2017-07-22T18:00:47.733Z,12.57
2017-07-22T18:03:15.379Z,11.77
2017-07-22T18:05:43.141Z,12.17
2017-07-22T18:08:10.956Z,13.50
2017-07-22T18:10:38.781Z,13.10
2017-07-22T18:13:06.475Z,15.87
2017-07-22T18:15:36.920Z,14.77
2017-07-22T18:18:04.735Z,15.00
2017-07-22T18:20:33.536Z,15.97
2017-07-22T18:23:01.254Z,13.97
2017-07-22T18:25:33.623Z,13.37
2017-07-22T18:28:01.299Z,12.80
2017-07-22T18:30:29.276Z,13.57
2017-07-22T18:32:58.603Z,13.70
2017-07-22T18:35:26.389Z,14.13
2017-07-22T18:37:54.111Z,14.50
2017-07-22T18:40:21.889Z,12.63
2017-07-22T18:42:49.616Z,12.57
2017-07-22T18:45:17.450Z,13.47
2017-07-22T18:47:45.291Z,12.17
2017-07-22T18:50:14.549Z,12.27
2017-07-22T18:52:42.213Z,15.60
2017-07-22T18:55:10.039Z,14.70
2017-07-22T18:57:37.719Z,14.13
2017-07-22T19:00:07.964Z,14.27
2017-07-22T19:02:41.161Z,14.40
2017-07-22T19:05:12.097Z,14.20
2017-07-22T19:07:43.544Z,15.80
2017-07-22T19:10:28.798Z,13.50
2017-07-22T19:13:07.155Z,13.60
2017-07-22T19:15:52.269Z,11.87
2017-07-22T19:18:25.546Z,12.53
2017-07-22T19:20:53.568Z,12.57
2017-07-22T19:23:21.986Z,13.53
2017-07-22T19:25:50.613Z,13.13
2017-07-22T19:28:18.574Z,12.83
2017-07-22T19:30:46.377Z,13.90
2017-07-22T19:33:15.654Z,12.23
2017-07-22T19:35:46.388Z,12.00
2017-07-22T19:38:15.697Z,12.37
2017-07-22T19:40:43.462Z,12.03
2017-07-22T19:43:11.127Z,12.43
2017-07-22T19:45:39.007Z,10.73
2017-07-22T19:48:07.419Z,11.40
2017-07-22T19:50:35.114Z,11.10
2017-07-22T19:53:02.806Z,12.17
2017-07-22T19:55:30.554Z,12.47
2017-07-22T19:57:58.391Z,11.63
2017-07-22T20:00:26.517Z,11.43
2017-07-22T20:02:54.403Z,12.43
2017-07-22T20:05:23.907Z,11.70
2017-07-22T20:11:12.800Z,11.60
2017-07-22T20:13:40.838Z,12.00
2017-07-22T20:16:09.152Z,12.00
2017-07-22T20:18:37.065Z,13.03
2017-07-22T20:21:05.412Z,13.20
2017-07-22T20:23:36.694Z,12.63
2017-07-22T20:26:04.460Z,13.03
2017-07-22T20:28:33.595Z,12.13
2017-07-22T20:31:02.124Z,12.33
2017-07-22T20:33:29.916Z,12.90
2017-07-22T20:36:01.066Z,12.90
2017-07-22T20:41:03.459Z,12.37
2017-07-22T20:43:31.174Z,12.93
2017-07-22T20:46:00.267Z,12.47
2017-07-22T20:48:27.955Z,11.97
2017-07-22T20:50:55.680Z,12.13
2017-07-22T20:53:23.320Z,13.27
2017-07-22T20:55:50.982Z,12.03
2017-07-22T20:58:18.873Z,12.23
2017-07-22T21:00:47.111Z,11.00
2017-07-22T21:03:14.925Z,11.90
2017-07-22T21:05:42.653Z,12.20
2017-07-22T21:08:10.395Z,12.57
2017-07-22T21:10:38.073Z,12.63
2017-07-22T21:13:05.777Z,11.70
2017-07-22T21:15:33.445Z,11.90
2017-07-22T21:18:02.420Z,11.60
2017-07-22T21:20:30.049Z,14.43
2017-07-22T21:23:02.179Z,13.23
2017-07-22T21:25:29.939Z,14.07
2017-07-22T21:28:00.505Z,14.83
2017-07-22T21:30:28.323Z,13.60
2017-07-22T21:32:56.004Z,12.63
2017-07-22T21:35:23.846Z,11.97
2017-07-22T21:37:51.605Z,12.80
2017-07-22T21:40:19.325Z,11.50
2017-07-22T21:42:48.633Z,11.03
2017-07-22T21:49:27.893Z,12.50
2017-07-22T21:51:55.512Z,11.90
2017-07-22T21:54:24.507Z,12.07
2017-07-22T21:56:52.237Z,11.57
2017-07-22T21:59:20.771Z,12.30
2017-07-22T22:01:48.420Z,11.00
2017-07-22T22:04:16.159Z,11.60
2017-07-22T22:06:44.031Z,12.33
2017-07-22T22:09:11.649Z,11.40
2017-07-22T22:11:39.533Z,11.90
2017-07-22T22:14:07.686Z,11.73
2017-07-22T22:16:35.465Z,11.50
2017-07-22T22:19:03.247Z,11.33
2017-07-22T22:21:30.912Z,11.93
2017-07-22T22:23:58.531Z,11.73
2017-07-22T22:26:26.164Z,11.73
2017-07-22T22:28:55.498Z,11.63
2017-07-22T22:31:26.084Z,12.53
2017-07-22T22:33:56.295Z,13.20
2017-07-22T22:36:25.571Z,11.07
2017-07-22T22:38:53.247Z,12.10
2017-07-22T22:41:21.881Z,11.40
2017-07-22T22:43:49.471Z,13.03
2017-07-22T22:46:17.344Z,11.67
2017-07-22T22:48:45.044Z,12.00
2017-07-22T22:51:12.636Z,12.20
2017-07-22T22:53:42.809Z,12.63
2017-07-22T22:56:10.947Z,12.57
2017-07-22T22:58:41.088Z,12.97
2017-07-22T23:01:10.159Z,13.90
2017-07-22T23:03:38.879Z,12.40
2017-07-22T23:06:07.075Z,12.70
2017-07-22T23:08:34.754Z,14.80
2017-07-22T23:11:02.470Z,13.90
2017-07-22T23:13:30.119Z,14.83
2017-07-22T23:15:57.782Z,13.57
2017-07-22T23:18:25.412Z,15.30
2017-07-22T23:20:52.974Z,13.20
2017-07-22T23:23:21.418Z,12.80
2017-07-22T23:25:49.172Z,12.50
2017-07-22T23:28:18.094Z,12.17
2017-07-22T23:30:45.912Z,10.80
2017-07-22T23:33:14.390Z,10.17
2017-07-22T23:35:42.051Z,9.80
2017-07-22T23:38:09.827Z,9.37
2017-07-22T23:40:38.428Z,9.03
2017-07-22T23:43:06.003Z,8.63
2017-07-22T23:45:33.624Z,8.87
2017-07-22T23:48:02.134Z,7.77
2017-07-22T23:50:29.876Z,8.30
2017-07-22T23:52:58.234Z,9.27
2017-07-22T23:55:25.855Z,9.60
2017-07-22T23:57:53.834Z,8.80
